Terminal Aerodrome Forecast
Issued by NWS

Home | Current Version | Previous Version | Text Only | Print | Product List | Glossary On
Versions: 1 2 3 4 5 6 7 8 9 10 11 12 13 14 15
000
FTUS45 KRIW 300800 AAA
TAFBPI
TAF AMD
KBPI 300805Z 3008/3106 03006KT P6SM VCSH BKN018
     FM301200 VRB05KT P6SM VCFG FEW005 BKN080
     FM301600 VRB05KT P6SM SCT040 BKN120
     FM301900 VRB06KT P6SM VCSH SCT080 BKN140
     FM310200 VRB05KT P6SM FEW080 SCT150=

USA.gov is the U.S. government's official web portal to all federal, state and local government web resources and services.